createdAt,value
2023-05-16T00:01:25.039Z,1.88
2023-05-16T00:03:52.582Z,1.88
2023-05-16T00:06:20.311Z,1.83
2023-05-16T00:08:48.590Z,1.80
2023-05-16T00:11:17.679Z,2.42
2023-05-16T00:13:45.438Z,1.80
2023-05-16T00:16:14.700Z,2.35
2023-05-16T00:18:42.216Z,2.88
2023-05-16T00:21:09.637Z,1.88
2023-05-16T00:26:04.524Z,2.05
2023-05-16T00:30:59.512Z,1.60
2023-05-16T00:33:27.011Z,1.50
2023-05-16T00:35:54.506Z,2.00
2023-05-16T00:38:21.924Z,1.67
2023-05-16T00:40:49.515Z,1.60
2023-05-16T00:43:16.948Z,1.85
2023-05-16T00:45:45.808Z,2.25
2023-05-16T00:48:15.073Z,2.30
2023-05-16T00:50:42.762Z,1.67
2023-05-16T00:53:10.834Z,2.13
2023-05-16T00:55:38.768Z,2.15
2023-05-16T00:58:08.856Z,1.95
2023-05-16T01:00:36.377Z,2.65
2023-05-16T01:03:05.918Z,1.90
2023-05-16T01:05:34.225Z,2.00
2023-05-16T01:08:01.905Z,2.42
2023-05-16T01:11:02.109Z,1.98
2023-05-16T01:13:54.714Z,1.77
2023-05-16T01:16:34.618Z,2.60
2023-05-16T01:19:21.574Z,1.88
2023-05-16T01:22:05.761Z,2.10
2023-05-16T01:25:11.388Z,2.13
2023-05-16T01:27:41.080Z,1.95
2023-05-16T01:30:16.957Z,2.20
2023-05-16T01:32:44.799Z,2.03
2023-05-16T01:35:14.767Z,2.53
2023-05-16T01:37:56.097Z,2.20
2023-05-16T01:40:37.986Z,2.35
2023-05-16T01:43:11.928Z,2.00
2023-05-16T01:45:47.738Z,2.70
2023-05-16T01:48:22.374Z,1.83
2023-05-16T01:50:56.440Z,2.25
2023-05-16T01:53:33.626Z,2.17
2023-05-16T01:58:33.310Z,2.38
2023-05-16T02:01:06.289Z,3.85
2023-05-16T02:03:34.776Z,2.38
2023-05-16T02:06:02.452Z,2.47
2023-05-16T02:08:30.331Z,2.30
2023-05-16T02:10:57.765Z,2.30
2023-05-16T02:13:25.292Z,2.15
2023-05-16T02:15:53.187Z,2.10
2023-05-16T02:18:20.810Z,2.40
2023-05-16T02:20:48.252Z,2.00
2023-05-16T02:23:16.905Z,2.20
2023-05-16T02:25:44.618Z,1.73
2023-05-16T02:28:12.143Z,2.28
2023-05-16T02:30:39.944Z,2.75
2023-05-16T02:33:07.569Z,2.53
2023-05-16T02:35:35.126Z,2.28
2023-05-16T02:38:02.692Z,2.60
2023-05-16T02:40:30.134Z,2.33
2023-05-16T02:42:57.686Z,2.50
2023-05-16T02:45:25.316Z,2.80
2023-05-16T02:47:52.900Z,3.58
2023-05-16T02:50:20.719Z,2.85
2023-05-16T02:52:48.427Z,2.45
2023-05-16T02:55:22.247Z,2.38
2023-05-16T02:57:51.184Z,2.70
2023-05-16T03:00:19.607Z,2.85
2023-05-16T03:02:47.678Z,2.40
2023-05-16T03:05:15.177Z,2.70
2023-05-16T03:07:42.736Z,2.30
2023-05-16T03:10:10.451Z,2.72
2023-05-16T03:12:39.190Z,2.53
2023-05-16T03:17:36.935Z,2.45
2023-05-16T03:20:05.397Z,2.45
2023-05-16T03:22:32.800Z,2.70
2023-05-16T03:27:28.105Z,2.83
2023-05-16T03:29:55.562Z,2.80
2023-05-16T03:32:23.091Z,3.05
2023-05-16T03:34:50.814Z,2.97
2023-05-16T03:37:18.403Z,3.05
2023-05-16T03:39:45.969Z,2.70
2023-05-16T03:44:40.707Z,2.72
2023-05-16T03:47:08.355Z,3.13
2023-05-16T03:49:37.144Z,2.78
2023-05-16T03:52:05.710Z,2.88
2023-05-16T03:54:33.298Z,3.08
2023-05-16T03:57:00.866Z,2.70
2023-05-16T03:59:28.259Z,2.83
2023-05-16T04:04:23.107Z,3.20
2023-05-16T04:06:50.571Z,3.00
2023-05-16T04:14:13.294Z,2.60
2023-05-16T04:19:08.209Z,2.35
2023-05-16T04:21:36.470Z,3.00
2023-05-16T04:24:04.013Z,2.63
2023-05-16T04:26:32.024Z,2.83
2023-05-16T04:29:00.228Z,2.45
2023-05-16T04:31:27.858Z,2.88
2023-05-16T04:33:56.178Z,2.70
2023-05-16T04:36:23.799Z,3.53
2023-05-16T04:38:51.399Z,3.10
2023-05-16T04:41:18.872Z,3.30
2023-05-16T04:46:15.598Z,2.67
2023-05-16T04:48:43.103Z,3.30
2023-05-16T04:51:10.537Z,3.00
2023-05-16T04:58:33.396Z,2.50
2023-05-16T05:01:01.864Z,2.97
2023-05-16T05:03:29.385Z,2.45
2023-05-16T05:05:56.873Z,2.55
2023-05-16T05:08:24.296Z,2.60
2023-05-16T05:13:19.044Z,3.10
2023-05-16T05:15:46.685Z,2.70
2023-05-16T05:18:14.294Z,2.90
2023-05-16T05:20:42.271Z,2.50
2023-05-16T05:23:09.729Z,2.85
2023-05-16T05:25:37.831Z,2.25
2023-05-16T05:28:06.129Z,2.40
2023-05-16T05:30:33.723Z,2.83
2023-05-16T05:33:01.332Z,2.75
2023-05-16T05:35:29.214Z,2.15
2023-05-16T05:37:56.797Z,2.40
2023-05-16T05:40:24.309Z,2.42
2023-05-16T05:42:51.951Z,2.60
2023-05-16T05:45:19.387Z,2.40
2023-05-16T05:47:46.858Z,2.30
2023-05-16T05:50:15.724Z,2.63
2023-05-16T05:52:43.211Z,1.90
2023-05-16T05:55:10.716Z,2.55
2023-05-16T05:57:38.221Z,2.58
2023-05-16T06:00:07.124Z,2.45
2023-05-16T06:02:37.774Z,2.63
2023-05-16T06:05:05.896Z,2.53
2023-05-16T06:07:33.757Z,2.67
2023-05-16T06:10:05.271Z,2.63
2023-05-16T06:12:33.267Z,2.40
2023-05-16T06:15:00.797Z,2.72
2023-05-16T06:17:28.351Z,3.08
2023-05-16T06:19:55.718Z,2.55
2023-05-16T06:22:23.180Z,2.60
2023-05-16T06:24:50.902Z,2.97
2023-05-16T06:27:18.459Z,2.75
2023-05-16T06:29:45.858Z,2.85
2023-05-16T06:32:13.635Z,3.05
2023-05-16T06:34:41.081Z,2.78
2023-05-16T06:37:08.664Z,2.67
2023-05-16T06:39:36.087Z,2.97
2023-05-16T06:42:03.940Z,3.45
2023-05-16T06:44:33.373Z,3.47
2023-05-16T06:47:00.931Z,3.13
2023-05-16T06:49:28.544Z,3.13
2023-05-16T06:51:56.281Z,3.70
2023-05-16T06:54:23.743Z,3.08
2023-05-16T06:56:51.517Z,3.33
2023-05-16T06:59:19.022Z,2.83
2023-05-16T07:01:46.797Z,3.75
2023-05-16T07:04:15.512Z,2.78
2023-05-16T07:06:43.371Z,3.13
2023-05-16T07:09:11.169Z,3.10
2023-05-16T07:11:38.623Z,3.28
2023-05-16T07:14:06.581Z,3.38
2023-05-16T07:16:54.485Z,2.80
2023-05-16T07:19:37.335Z,2.77
2023-05-16T07:22:20.332Z,2.90
2023-05-16T07:25:11.007Z,3.17
2023-05-16T07:27:46.007Z,3.03
2023-05-16T07:30:19.236Z,2.50
2023-05-16T07:32:51.296Z,2.70
2023-05-16T07:35:39.263Z,2.40
2023-05-16T07:38:10.557Z,2.00
2023-05-16T07:40:50.075Z,2.00
2023-05-16T07:43:22.143Z,2.22
2023-05-16T07:46:16.161Z,2.35
2023-05-16T07:51:26.208Z,2.13
2023-05-16T07:54:10.071Z,1.88
2023-05-16T07:56:45.995Z,1.50
2023-05-16T07:59:20.066Z,1.73
2023-05-16T08:01:49.089Z,2.00
2023-05-16T08:04:23.571Z,2.00
2023-05-16T08:07:01.782Z,1.27
2023-05-16T08:09:31.402Z,1.67
2023-05-16T08:12:05.695Z,1.70
2023-05-16T08:14:43.954Z,1.50
2023-05-16T08:17:11.841Z,1.50
2023-05-16T08:19:39.453Z,1.70
2023-05-16T08:22:15.349Z,1.60
2023-05-16T08:24:53.443Z,1.60
2023-05-16T08:27:21.874Z,1.77
2023-05-16T08:29:52.898Z,1.40
2023-05-16T08:32:24.422Z,1.98
2023-05-16T08:34:55.232Z,1.30
2023-05-16T08:37:28.021Z,1.63
2023-05-16T08:40:00.993Z,1.50
2023-05-16T08:42:30.912Z,1.45
2023-05-16T08:45:01.458Z,1.20
2023-05-16T08:47:36.126Z,1.35
2023-05-16T08:50:08.482Z,1.50
2023-05-16T08:52:44.140Z,1.40
2023-05-16T08:55:19.217Z,1.42
2023-05-16T08:57:50.804Z,1.65
2023-05-16T09:00:23.515Z,1.40
2023-05-16T09:02:56.550Z,2.08
2023-05-16T09:05:32.281Z,1.40
2023-05-16T09:08:07.384Z,1.45
2023-05-16T09:10:43.948Z,1.75
2023-05-16T09:13:13.508Z,1.45
2023-05-16T09:15:52.164Z,1.35
2023-05-16T09:18:30.422Z,1.40
2023-05-16T09:21:04.032Z,2.30
2023-05-16T09:23:39.716Z,1.45
2023-05-16T09:26:09.752Z,1.63
2023-05-16T09:28:40.764Z,1.38
2023-05-16T09:31:40.357Z,1.55
2023-05-16T09:34:17.700Z,1.90
2023-05-16T09:36:59.835Z,1.25
2023-05-16T09:39:30.013Z,1.40
2023-05-16T09:42:03.079Z,1.45
2023-05-16T09:44:32.378Z,1.38
2023-05-16T09:47:15.418Z,1.15
2023-05-16T09:49:48.798Z,1.83
2023-05-16T09:52:18.313Z,1.45
2023-05-16T09:54:51.555Z,1.65
2023-05-16T09:57:27.788Z,1.30
2023-05-16T10:00:02.253Z,1.30
2023-05-16T10:02:38.479Z,1.45
2023-05-16T10:05:14.283Z,1.00
2023-05-16T10:07:53.214Z,1.30
2023-05-16T10:10:25.740Z,1.33
2023-05-16T10:13:02.884Z,1.30
2023-05-16T10:15:33.659Z,1.48
2023-05-16T10:18:13.279Z,1.17
2023-05-16T10:20:52.443Z,1.17
2023-05-16T10:23:31.934Z,1.50
2023-05-16T10:26:05.523Z,1.15
2023-05-16T10:28:43.258Z,1.13
2023-05-16T10:31:12.831Z,1.13
2023-05-16T10:33:51.487Z,1.15
2023-05-16T10:36:28.479Z,0.88
2023-05-16T10:39:05.252Z,1.30
2023-05-16T10:41:36.632Z,1.60
2023-05-16T10:44:22.671Z,1.02
2023-05-16T10:46:59.987Z,1.38
2023-05-16T10:49:37.997Z,1.40
2023-05-16T10:52:12.599Z,1.10
2023-05-16T10:54:54.149Z,1.20
2023-05-16T10:57:25.975Z,1.90
2023-05-16T10:59:57.836Z,1.15
2023-05-16T11:02:26.172Z,1.20
2023-05-16T11:04:56.374Z,1.08
2023-05-16T11:07:25.249Z,1.63
2023-05-16T11:10:10.480Z,1.13
2023-05-16T11:12:38.617Z,1.45
2023-05-16T11:15:25.107Z,1.38
2023-05-16T11:20:38.750Z,1.33
2023-05-16T11:23:26.028Z,1.20
2023-05-16T11:26:00.909Z,1.25
2023-05-16T11:28:28.852Z,1.48
2023-05-16T11:31:00.056Z,1.23
2023-05-16T11:33:29.969Z,1.10
2023-05-16T11:36:16.619Z,1.20
2023-05-16T11:41:12.443Z,1.30
2023-05-16T11:43:44.015Z,1.13
2023-05-16T11:46:16.563Z,1.50
2023-05-16T11:48:46.541Z,1.00
2023-05-16T11:51:19.045Z,1.30
2023-05-16T11:53:50.447Z,1.30
2023-05-16T11:56:18.657Z,1.30
2023-05-16T11:58:46.244Z,1.27
2023-05-16T12:01:13.895Z,1.52
2023-05-16T12:03:41.920Z,0.93
2023-05-16T12:06:09.581Z,1.17
2023-05-16T12:08:37.561Z,1.50
2023-05-16T12:11:05.251Z,1.60
2023-05-16T12:13:32.916Z,1.10
2023-05-16T12:16:00.720Z,1.20
2023-05-16T12:18:28.369Z,1.27
2023-05-16T12:20:55.912Z,1.40
2023-05-16T12:23:23.675Z,1.50
2023-05-16T12:25:55.580Z,0.93
2023-05-16T12:28:23.051Z,1.05
2023-05-16T12:30:50.926Z,1.40
2023-05-16T12:33:18.596Z,1.02
2023-05-16T12:35:47.811Z,1.00
2023-05-16T12:38:17.438Z,1.10
2023-05-16T12:40:46.075Z,1.25
2023-05-16T12:43:19.934Z,1.45
2023-05-16T12:45:57.822Z,1.35
2023-05-16T12:48:34.577Z,1.15
2023-05-16T12:51:17.150Z,1.00
2023-05-16T12:53:57.631Z,1.40
2023-05-16T12:56:40.260Z,1.40
2023-05-16T12:59:09.070Z,0.95
2023-05-16T13:01:36.835Z,1.13
2023-05-16T13:04:05.199Z,1.58
2023-05-16T13:06:49.006Z,1.00
2023-05-16T13:09:20.473Z,1.63
2023-05-16T13:11:48.447Z,1.10
2023-05-16T13:14:17.418Z,1.65
2023-05-16T13:16:45.102Z,1.20
2023-05-16T13:19:12.691Z,1.42
2023-05-16T13:21:40.189Z,1.40
2023-05-16T13:24:07.914Z,1.17
2023-05-16T13:26:35.396Z,1.30
2023-05-16T13:29:02.972Z,1.30
2023-05-16T13:31:30.491Z,1.95
2023-05-16T13:33:59.078Z,1.10
2023-05-16T13:36:26.994Z,1.38
2023-05-16T13:38:55.098Z,1.65
2023-05-16T13:41:22.543Z,1.40
2023-05-16T13:43:50.031Z,1.45
2023-05-16T13:46:17.481Z,1.30
2023-05-16T13:48:45.085Z,1.58
2023-05-16T13:51:15.298Z,1.45
2023-05-16T13:53:48.169Z,1.27
2023-05-16T13:56:16.054Z,1.45
2023-05-16T13:58:59.695Z,1.55
2023-05-16T14:01:29.946Z,1.10
2023-05-16T14:03:57.778Z,1.40
2023-05-16T14:06:25.674Z,1.75
2023-05-16T14:08:53.568Z,1.15
2023-05-16T14:11:28.464Z,1.63
2023-05-16T14:13:57.996Z,1.67
2023-05-16T14:16:26.330Z,1.67
2023-05-16T14:18:54.140Z,1.58
2023-05-16T14:21:21.653Z,1.35
2023-05-16T14:23:49.191Z,1.98
2023-05-16T14:26:18.126Z,1.90
2023-05-16T14:28:45.662Z,1.60
2023-05-16T14:31:13.110Z,1.38
2023-05-16T14:33:41.251Z,1.70
2023-05-16T14:36:08.826Z,1.98
2023-05-16T14:38:36.734Z,1.55
2023-05-16T14:41:04.176Z,1.20
2023-05-16T14:43:31.871Z,1.58
2023-05-16T14:45:59.490Z,1.30
2023-05-16T14:48:27.093Z,1.10
2023-05-16T14:50:54.557Z,1.05
2023-05-16T14:53:22.089Z,1.30
2023-05-16T14:55:50.046Z,1.20
2023-05-16T14:58:17.765Z,1.33
2023-05-16T15:00:45.303Z,1.50
2023-05-16T15:03:15.672Z,1.83
2023-05-16T15:05:44.421Z,1.35
2023-05-16T15:08:11.957Z,1.70
2023-05-16T15:10:39.507Z,1.65
2023-05-16T15:13:08.316Z,1.73
2023-05-16T15:15:38.710Z,1.30
2023-05-16T15:18:06.315Z,1.77
2023-05-16T15:20:33.883Z,1.38
2023-05-16T15:23:01.321Z,2.13
2023-05-16T15:25:29.555Z,1.55
2023-05-16T15:27:57.510Z,1.30
2023-05-16T15:30:25.232Z,1.45
2023-05-16T15:32:52.925Z,1.33
2023-05-16T15:35:20.585Z,1.40
2023-05-16T15:37:47.995Z,1.73
2023-05-16T15:40:15.713Z,1.48
2023-05-16T15:42:44.398Z,1.58
2023-05-16T15:45:12.628Z,1.40
2023-05-16T15:47:42.033Z,2.10
2023-05-16T15:50:10.299Z,1.58
2023-05-16T15:52:37.759Z,1.50
2023-05-16T15:55:06.220Z,1.95
2023-05-16T15:57:33.658Z,1.40
2023-05-16T16:00:01.217Z,1.85
2023-05-16T16:02:28.818Z,1.83
2023-05-16T16:04:56.466Z,1.90
2023-05-16T16:07:24.862Z,1.58
2023-05-16T16:09:52.406Z,1.80
2023-05-16T16:12:19.839Z,1.70
2023-05-16T16:14:49.553Z,1.90
2023-05-16T16:17:17.277Z,1.73
2023-05-16T16:19:44.744Z,1.55
2023-05-16T16:22:12.170Z,2.05
2023-05-16T16:24:39.750Z,1.60
2023-05-16T16:27:07.235Z,1.67
2023-05-16T16:29:34.782Z,1.40
2023-05-16T16:32:02.223Z,1.27
2023-05-16T16:34:30.042Z,1.50
2023-05-16T16:36:57.516Z,1.25
2023-05-16T16:39:25.980Z,1.30
2023-05-16T16:41:53.516Z,1.20
2023-05-16T16:44:20.986Z,1.45
2023-05-16T16:46:48.532Z,1.88
2023-05-16T16:49:16.133Z,1.38
2023-05-16T16:51:43.615Z,1.98
2023-05-16T16:54:11.314Z,1.30
2023-05-16T16:56:38.778Z,1.35
2023-05-16T16:59:06.303Z,1.20
2023-05-16T17:01:35.037Z,1.40
2023-05-16T17:04:03.121Z,1.23
2023-05-16T17:06:30.956Z,1.60
2023-05-16T17:09:03.650Z,1.33
2023-05-16T17:11:31.916Z,0.98
2023-05-16T17:13:59.908Z,1.38
2023-05-16T17:16:30.289Z,1.08
2023-05-16T17:18:58.014Z,1.30
2023-05-16T17:21:26.817Z,0.93
2023-05-16T17:23:55.243Z,1.42
2023-05-16T17:26:22.853Z,1.30
2023-05-16T17:28:50.423Z,1.30
2023-05-16T17:31:17.976Z,1.48
2023-05-16T17:33:45.443Z,1.35
2023-05-16T17:36:12.952Z,0.82
2023-05-16T17:38:40.474Z,0.85
2023-05-16T17:41:07.980Z,1.02
2023-05-16T17:43:35.445Z,1.17
2023-05-16T17:46:04.039Z,1.20
2023-05-16T17:48:31.667Z,1.17
2023-05-16T17:50:59.249Z,0.90
2023-05-16T17:53:26.875Z,1.08
2023-05-16T17:55:54.359Z,1.02
2023-05-16T17:58:21.740Z,1.30
2023-05-16T18:00:49.349Z,1.20
2023-05-16T18:03:24.660Z,0.95
2023-05-16T18:06:00.594Z,0.98
2023-05-16T18:08:31.995Z,1.52
2023-05-16T18:11:01.727Z,1.40
2023-05-16T18:13:31.243Z,1.02
2023-05-16T18:15:58.893Z,1.27
2023-05-16T18:18:27.269Z,1.13
2023-05-16T18:20:55.112Z,1.35
2023-05-16T18:23:22.580Z,1.27
2023-05-16T18:25:50.367Z,1.10
2023-05-16T18:28:18.538Z,1.20
2023-05-16T18:30:46.071Z,1.10
2023-05-16T18:33:13.613Z,1.00
2023-05-16T18:35:41.076Z,1.08
2023-05-16T18:38:14.458Z,1.52
2023-05-16T18:40:48.658Z,1.75
2023-05-16T18:43:17.226Z,1.50
2023-05-16T18:45:44.836Z,1.75
2023-05-16T18:48:12.401Z,1.30
2023-05-16T18:50:40.098Z,1.77
2023-05-16T18:53:07.537Z,1.10
2023-05-16T18:55:35.240Z,1.40
2023-05-16T18:58:02.883Z,1.95
2023-05-16T19:00:30.456Z,1.50
2023-05-16T19:02:58.038Z,1.35
2023-05-16T19:05:25.871Z,1.85
2023-05-16T19:07:53.634Z,2.45
2023-05-16T19:10:21.851Z,1.60
2023-05-16T19:12:49.583Z,1.67
2023-05-16T19:15:17.496Z,1.80
2023-05-16T19:17:45.074Z,1.60
2023-05-16T19:20:12.811Z,2.13
2023-05-16T19:22:40.420Z,2.00
2023-05-16T19:25:08.673Z,1.58
2023-05-16T19:27:36.236Z,2.53
2023-05-16T19:30:04.160Z,1.80
2023-05-16T19:32:31.660Z,1.80
2023-05-16T19:34:59.275Z,2.00
2023-05-16T19:37:26.785Z,1.77
2023-05-16T19:39:56.567Z,1.80
2023-05-16T19:42:24.040Z,1.77
2023-05-16T19:44:51.879Z,2.00
2023-05-16T19:47:19.706Z,2.03
2023-05-16T19:49:47.412Z,2.00
2023-05-16T19:52:14.922Z,1.85
2023-05-16T19:54:42.504Z,1.80
2023-05-16T19:57:10.073Z,2.20
2023-05-16T19:59:38.284Z,2.03
2023-05-16T20:02:05.824Z,2.03
2023-05-16T20:04:34.534Z,1.52
2023-05-16T20:07:02.268Z,2.00
2023-05-16T20:09:29.969Z,1.90
2023-05-16T20:11:58.163Z,1.85
2023-05-16T20:14:26.411Z,1.77
2023-05-16T20:16:53.989Z,1.95
2023-05-16T20:19:21.638Z,2.20
2023-05-16T20:21:50.443Z,2.28
2023-05-16T20:24:17.965Z,2.08
2023-05-16T20:26:45.418Z,1.65
2023-05-16T20:29:13.179Z,2.08
2023-05-16T20:31:43.776Z,2.40
2023-05-16T20:34:11.468Z,1.55
2023-05-16T20:36:39.066Z,1.65
2023-05-16T20:39:09.095Z,2.10
2023-05-16T20:41:36.690Z,1.73
2023-05-16T20:44:04.375Z,2.17
2023-05-16T20:46:31.995Z,1.48
2023-05-16T20:48:59.509Z,1.88
2023-05-16T20:51:26.938Z,2.15
2023-05-16T20:53:54.540Z,1.80
2023-05-16T20:56:24.350Z,2.03
2023-05-16T20:58:51.958Z,2.00
2023-05-16T21:01:19.423Z,1.38
2023-05-16T21:03:46.964Z,2.25
2023-05-16T21:06:14.511Z,2.03
2023-05-16T21:08:42.013Z,1.73
2023-05-16T21:11:09.442Z,2.03
2023-05-16T21:13:37.042Z,1.52
2023-05-16T21:16:04.740Z,1.60
2023-05-16T21:18:33.126Z,1.60
2023-05-16T21:21:00.698Z,1.77
2023-05-16T21:23:28.473Z,2.05
2023-05-16T21:25:56.065Z,1.65
2023-05-16T21:28:23.597Z,1.33
2023-05-16T21:30:51.060Z,1.70
2023-05-16T21:33:18.581Z,2.03
2023-05-16T21:35:47.205Z,1.73
2023-05-16T21:38:14.818Z,1.77
2023-05-16T21:40:42.309Z,1.33
2023-05-16T21:43:10.084Z,1.60
2023-05-16T21:45:37.594Z,1.98
2023-05-16T21:48:05.381Z,1.85
2023-05-16T21:50:35.435Z,1.80
2023-05-16T21:53:03.137Z,1.75
2023-05-16T21:55:30.797Z,2.20
2023-05-16T21:57:58.343Z,2.10
2023-05-16T22:00:25.781Z,1.60
2023-05-16T22:02:53.362Z,1.80
2023-05-16T22:05:20.974Z,1.58
2023-05-16T22:07:48.640Z,1.58
2023-05-16T22:10:16.973Z,1.95
2023-05-16T22:12:44.486Z,1.77
2023-05-16T22:15:11.957Z,1.80
2023-05-16T22:17:39.678Z,1.05
2023-05-16T22:20:08.283Z,1.75
2023-05-16T22:22:36.418Z,1.40
2023-05-16T22:25:05.159Z,1.73
2023-05-16T22:27:32.785Z,2.03
2023-05-16T22:30:00.211Z,1.63
2023-05-16T22:32:27.929Z,1.70
2023-05-16T22:34:55.408Z,1.90
2023-05-16T22:37:23.340Z,1.67
2023-05-16T22:39:51.499Z,3.00
2023-05-16T22:42:19.420Z,2.05
2023-05-16T22:44:46.885Z,2.22
2023-05-16T22:47:14.442Z,3.35
2023-05-16T22:49:41.937Z,2.65
2023-05-16T22:52:09.382Z,3.10
2023-05-16T22:57:04.394Z,2.42
2023-05-16T22:59:32.132Z,3.03
2023-05-16T23:01:59.674Z,2.20
2023-05-16T23:04:27.175Z,2.22
2023-05-16T23:06:54.766Z,2.10
2023-05-16T23:09:22.689Z,2.10
2023-05-16T23:11:50.214Z,2.05
2023-05-16T23:14:17.724Z,2.55
2023-05-16T23:16:45.152Z,1.77
2023-05-16T23:21:40.085Z,2.05
2023-05-16T23:24:08.354Z,2.20
2023-05-16T23:26:35.957Z,1.60
2023-05-16T23:29:03.583Z,1.77
2023-05-16T23:31:31.162Z,1.30
2023-05-16T23:33:58.642Z,1.80
2023-05-16T23:36:26.402Z,1.90
2023-05-16T23:38:53.908Z,1.75
2023-05-16T23:41:21.367Z,2.15
2023-05-16T23:46:16.235Z,1.52
2023-05-16T23:48:43.715Z,1.92
2023-05-16T23:51:11.225Z,2.30
2023-05-16T23:56:06.116Z,1.55
2023-05-16T23:58:33.808Z,1.60
